Terminal Aerodrome Forecast
Issued by NWS Cleveland, OH

Home | Current Version | Previous Version | Text Only | Print | Product List | Glossary Off
Versions: 1 2 3 4 5 6 7 8 9 10 11 12 13 14 15 16 17 18 19 20 21 22 23 24

000
FTUS41 KCLE 241936 AAA
TAFTOL
TAF AMD
KTOL 241936Z 2420/2518 05010KT P6SM OVC070
      TEMPO 2420/2421 5SM -SHRA OVC025
     FM242100 05012KT 6SM -SHRA OVC025
      TEMPO 2421/2501 3SM -SHRA OVC012
     FM250100 05012KT 3SM -SHRA BR OVC008
     FM250900 VRB05KT 5SM BR VCSH OVC004
     FM251500 30007KT P6SM VCSH OVC008=

USA.gov is the U.S. government's official web portal to all federal, state and local government web resources and services.